sensor_id;sensor_type;location;lat;lon;timestamp;pressure;altitude;pressure_sealevel;temperature;humidity
58471;BME280;44258;51.288;12.068;2023-07-22T00:02:29;100186.31;;;16.55;65.59
58471;BME280;44258;51.288;12.068;2023-07-22T00:05:16;100183.97;;;16.50;65.85
58471;BME280;44258;51.288;12.068;2023-07-22T00:08:10;100180.88;;;16.55;65.34
58471;BME280;44258;51.288;12.068;2023-07-22T00:10:58;100184.91;;;16.61;65.74
58471;BME280;44258;51.288;12.068;2023-07-22T00:13:45;100175.94;;;16.49;65.63
58471;BME280;44258;51.288;12.068;2023-07-22T00:16:32;100175.81;;;16.50;65.57
58471;BME280;44258;51.288;12.068;2023-07-22T00:19:19;100181.09;;;16.63;65.12
58471;BME280;44258;51.288;12.068;2023-07-22T00:22:06;100188.25;;;16.64;65.21
58471;BME280;44258;51.288;12.068;2023-07-22T00:24:54;100193.53;;;16.66;64.90
58471;BME280;44258;51.288;12.068;2023-07-22T00:27:41;100187.03;;;16.57;64.89
58471;BME280;44258;51.288;12.068;2023-07-22T00:30:28;100198.38;;;16.51;65.66
58471;BME280;44258;51.288;12.068;2023-07-22T00:33:15;100185.47;;;16.43;65.68
58471;BME280;44258;51.288;12.068;2023-07-22T00:36:04;100186.78;;;16.49;65.63
58471;BME280;44258;51.288;12.068;2023-07-22T00:38:51;100183.34;;;16.47;65.75
58471;BME280;44258;51.288;12.068;2023-07-22T00:41:41;100186.69;;;16.28;65.81
58471;BME280;44258;51.288;12.068;2023-07-22T00:44:29;100189.44;;;16.39;65.59
58471;BME280;44258;51.288;12.068;2023-07-22T00:47:17;100194.69;;;16.52;65.08
58471;BME280;44258;51.288;12.068;2023-07-22T00:50:05;100198.75;;;16.58;64.69
58471;BME280;44258;51.288;12.068;2023-07-22T00:52:52;100193.09;;;16.49;65.23
58471;BME280;44258;51.288;12.068;2023-07-22T00:55:39;100194.19;;;16.58;64.86
58471;BME280;44258;51.288;12.068;2023-07-22T00:58:28;100186.03;;;16.58;64.60
58471;BME280;44258;51.288;12.068;2023-07-22T01:01:16;100195.63;;;16.73;64.21
58471;BME280;44258;51.288;12.068;2023-07-22T01:04:03;100192.09;;;16.83;63.31
58471;BME280;44258;51.288;12.068;2023-07-22T01:06:50;100195.88;;;16.91;63.69
58471;BME280;44258;51.288;12.068;2023-07-22T01:09:39;100192.97;;;16.83;62.99
58471;BME280;44258;51.288;12.068;2023-07-22T01:12:26;100196.34;;;16.76;63.39
58471;BME280;44258;51.288;12.068;2023-07-22T01:15:14;100196.91;;;16.90;63.40
58471;BME280;44258;51.288;12.068;2023-07-22T01:18:01;100183.25;;;17.02;63.06
58471;BME280;44258;51.288;12.068;2023-07-22T01:20:48;100189.69;;;17.01;62.67
58471;BME280;44258;51.288;12.068;2023-07-22T01:23:37;100188.09;;;16.98;62.70
58471;BME280;44258;51.288;12.068;2023-07-22T01:26:24;100193.25;;;17.01;62.41
58471;BME280;44258;51.288;12.068;2023-07-22T01:29:12;100193.53;;;16.98;62.35
58471;BME280;44258;51.288;12.068;2023-07-22T01:31:58;100200.34;;;16.92;62.54
58471;BME280;44258;51.288;12.068;2023-07-22T01:34:45;100195.88;;;16.91;62.73
58471;BME280;44258;51.288;12.068;2023-07-22T01:37:32;100197.22;;;16.97;62.58
58471;BME280;44258;51.288;12.068;2023-07-22T01:40:21;100198.97;;;16.98;62.25
58471;BME280;44258;51.288;12.068;2023-07-22T01:43:09;100197.03;;;16.89;62.47
58471;BME280;44258;51.288;12.068;2023-07-22T01:45:55;100201.84;;;16.85;61.97
58471;BME280;44258;51.288;12.068;2023-07-22T01:48:42;100201.72;;;16.87;62.41
58471;BME280;44258;51.288;12.068;2023-07-22T01:51:32;100209.66;;;16.79;62.35
58471;BME280;44258;51.288;12.068;2023-07-22T01:54:19;100206.59;;;16.72;63.05
58471;BME280;44258;51.288;12.068;2023-07-22T01:57:09;100221.31;;;16.69;62.96
58471;BME280;44258;51.288;12.068;2023-07-22T01:59:56;100214.47;;;16.75;62.81
58471;BME280;44258;51.288;12.068;2023-07-22T02:02:43;100214.88;;;16.70;63.06
58471;BME280;44258;51.288;12.068;2023-07-22T02:05:30;100222.28;;;16.68;63.15
58471;BME280;44258;51.288;12.068;2023-07-22T02:08:17;100222.56;;;16.65;63.17
58471;BME280;44258;51.288;12.068;2023-07-22T02:11:04;100229.47;;;16.69;62.97
58471;BME280;44258;51.288;12.068;2023-07-22T02:13:53;100234.38;;;16.64;63.03
58471;BME280;44258;51.288;12.068;2023-07-22T02:16:40;100228.00;;;16.65;62.74
58471;BME280;44258;51.288;12.068;2023-07-22T02:19:27;100224.53;;;16.63;62.47
58471;BME280;44258;51.288;12.068;2023-07-22T02:22:13;100243.78;;;16.60;63.02
58471;BME280;44258;51.288;12.068;2023-07-22T02:25:00;100250.72;;;16.42;63.78
58471;BME280;44258;51.288;12.068;2023-07-22T02:27:49;100254.06;;;16.23;64.53
58471;BME280;44258;51.288;12.068;2023-07-22T02:30:39;100243.31;;;16.10;64.85
58471;BME280;44258;51.288;12.068;2023-07-22T02:33:25;100256.53;;;16.14;64.82
58471;BME280;44258;51.288;12.068;2023-07-22T02:36:13;100249.50;;;16.23;64.61
58471;BME280;44258;51.288;12.068;2023-07-22T02:39:00;100246.31;;;16.29;64.28
58471;BME280;44258;51.288;12.068;2023-07-22T02:41:47;100246.94;;;16.33;64.01
58471;BME280;44258;51.288;12.068;2023-07-22T02:44:33;100248.75;;;16.32;63.85
58471;BME280;44258;51.288;12.068;2023-07-22T02:47:22;100251.13;;;16.37;63.77
58471;BME280;44258;51.288;12.068;2023-07-22T02:50:09;100253.81;;;16.37;63.88
58471;BME280;44258;51.288;12.068;2023-07-22T02:52:56;100247.16;;;16.30;64.29
58471;BME280;44258;51.288;12.068;2023-07-22T02:55:43;100249.22;;;16.26;64.28
58471;BME280;44258;51.288;12.068;2023-07-22T02:58:31;100254.81;;;16.25;64.10
58471;BME280;44258;51.288;12.068;2023-07-22T03:01:18;100255.88;;;16.22;64.76
58471;BME280;44258;51.288;12.068;2023-07-22T03:04:06;100263.19;;;16.10;65.28
58471;BME280;44258;51.288;12.068;2023-07-22T03:06:56;100258.13;;;16.06;65.61
58471;BME280;44258;51.288;12.068;2023-07-22T03:09:43;100250.22;;;16.14;65.49
58471;BME280;44258;51.288;12.068;2023-07-22T03:12:30;100253.06;;;16.24;64.62
58471;BME280;44258;51.288;12.068;2023-07-22T03:15:17;100259.03;;;16.29;64.52
58471;BME280;44258;51.288;12.068;2023-07-22T03:18:04;100261.72;;;16.29;64.41
58471;BME280;44258;51.288;12.068;2023-07-22T03:20:53;100259.03;;;16.29;64.50
58471;BME280;44258;51.288;12.068;2023-07-22T03:23:40;100259.34;;;16.24;64.29
58471;BME280;44258;51.288;12.068;2023-07-22T03:26:27;100260.09;;;16.15;64.67
58471;BME280;44258;51.288;12.068;2023-07-22T03:29:13;100263.03;;;16.12;64.54
58471;BME280;44258;51.288;12.068;2023-07-22T03:32:00;100264.28;;;16.19;64.37
58471;BME280;44258;51.288;12.068;2023-07-22T03:34:47;100271.69;;;16.17;63.77
58471;BME280;44258;51.288;12.068;2023-07-22T03:37:35;100273.66;;;16.04;63.75
58471;BME280;44258;51.288;12.068;2023-07-22T03:40:22;100282.44;;;15.96;63.96
58471;BME280;44258;51.288;12.068;2023-07-22T03:43:12;100286.09;;;15.95;64.48
58471;BME280;44258;51.288;12.068;2023-07-22T03:45:58;100290.56;;;15.96;64.29
58471;BME280;44258;51.288;12.068;2023-07-22T03:48:45;100293.00;;;15.99;64.17
58471;BME280;44258;51.288;12.068;2023-07-22T03:51:33;100290.31;;;15.99;64.53
58471;BME280;44258;51.288;12.068;2023-07-22T03:54:21;100293.63;;;16.03;64.52
58471;BME280;44258;51.288;12.068;2023-07-22T03:57:11;100291.03;;;16.01;64.44
58471;BME280;44258;51.288;12.068;2023-07-22T04:00:00;100284.28;;;16.07;64.36
58471;BME280;44258;51.288;12.068;2023-07-22T04:02:29;100280.22;;;16.12;64.18
58471;BME280;44258;51.288;12.068;2023-07-22T04:05:16;100291.28;;;16.09;63.81
58471;BME280;44258;51.288;12.068;2023-07-22T04:08:03;100288.84;;;16.06;64.36
58471;BME280;44258;51.288;12.068;2023-07-22T04:10:54;100301.03;;;16.01;64.89
58471;BME280;44258;51.288;12.068;2023-07-22T04:13:41;100297.94;;;16.05;64.51
58471;BME280;44258;51.288;12.068;2023-07-22T04:16:31;100307.94;;;16.05;64.61
58471;BME280;44258;51.288;12.068;2023-07-22T04:19:19;100307.31;;;16.01;65.02
58471;BME280;44258;51.288;12.068;2023-07-22T04:22:05;100305.34;;;16.03;65.09
58471;BME280;44258;51.288;12.068;2023-07-22T04:24:52;100299.44;;;16.09;65.07
58471;BME280;44258;51.288;12.068;2023-07-22T04:27:40;100306.44;;;16.12;65.04
58471;BME280;44258;51.288;12.068;2023-07-22T04:30:28;100305.47;;;16.13;65.18
58471;BME280;44258;51.288;12.068;2023-07-22T04:33:15;100314.84;;;16.09;65.24
58471;BME280;44258;51.288;12.068;2023-07-22T04:36:02;100308.31;;;16.23;64.63
58471;BME280;44258;51.288;12.068;2023-07-22T04:38:49;100312.88;;;16.22;64.59
58471;BME280;44258;51.288;12.068;2023-07-22T04:41:36;100315.75;;;16.32;64.21
58471;BME280;44258;51.288;12.068;2023-07-22T04:44:24;100330.91;;;16.34;64.28
58471;BME280;44258;51.288;12.068;2023-07-22T04:47:11;100327.66;;;16.18;65.21
58471;BME280;44258;51.288;12.068;2023-07-22T04:49:58;100316.81;;;16.18;64.82
58471;BME280;44258;51.288;12.068;2023-07-22T04:52:45;100328.66;;;16.28;64.74
58471;BME280;44258;51.288;12.068;2023-07-22T04:55:32;100326.09;;;16.27;64.89
58471;BME280;44258;51.288;12.068;2023-07-22T04:58:19;100331.41;;;16.40;64.51
58471;BME280;44258;51.288;12.068;2023-07-22T05:01:07;100332.75;;;16.34;64.91
58471;BME280;44258;51.288;12.068;2023-07-22T05:03:55;100336.91;;;16.15;65.49
58471;BME280;44258;51.288;12.068;2023-07-22T05:06:43;100339.28;;;16.43;64.88
58471;BME280;44258;51.288;12.068;2023-07-22T05:09:30;100338.56;;;16.52;64.43
58471;BME280;44258;51.288;12.068;2023-07-22T05:12:16;100332.41;;;16.61;64.34
58471;BME280;44258;51.288;12.068;2023-07-22T05:15:05;100334.84;;;16.76;63.71
58471;BME280;44258;51.288;12.068;2023-07-22T05:17:53;100343.97;;;16.74;63.80
58471;BME280;44258;51.288;12.068;2023-07-22T05:20:40;100333.72;;;16.67;64.20
58471;BME280;44258;51.288;12.068;2023-07-22T05:23:27;100342.63;;;16.58;64.49
58471;BME280;44258;51.288;12.068;2023-07-22T05:26:14;100346.31;;;16.57;64.79
58471;BME280;44258;51.288;12.068;2023-07-22T05:29:01;100338.78;;;16.71;64.79
58471;BME280;44258;51.288;12.068;2023-07-22T05:31:47;100337.53;;;16.87;64.22
58471;BME280;44258;51.288;12.068;2023-07-22T05:34:36;100340.97;;;16.89;63.92
58471;BME280;44258;51.288;12.068;2023-07-22T05:37:22;100335.25;;;17.03;63.83
58471;BME280;44258;51.288;12.068;2023-07-22T05:40:10;100341.81;;;16.89;63.47
58471;BME280;44258;51.288;12.068;2023-07-22T05:42:57;100345.66;;;16.87;63.10
58471;BME280;44258;51.288;12.068;2023-07-22T05:45:44;100347.72;;;17.06;62.52
58471;BME280;44258;51.288;12.068;2023-07-22T05:48:31;100342.00;;;17.20;62.44
58471;BME280;44258;51.288;12.068;2023-07-22T05:51:19;100352.25;;;17.28;62.01
58471;BME280;44258;51.288;12.068;2023-07-22T05:54:06;100345.72;;;17.30;61.05
58471;BME280;44258;51.288;12.068;2023-07-22T05:56:54;100351.47;;;17.69;60.86
58471;BME280;44258;51.288;12.068;2023-07-22T05:59:41;100346.78;;;17.81;59.66
58471;BME280;44258;51.288;12.068;2023-07-22T06:02:28;100348.69;;;18.02;59.71
58471;BME280;44258;51.288;12.068;2023-07-22T06:05:14;100355.09;;;18.01;59.41
58471;BME280;44258;51.288;12.068;2023-07-22T06:08:03;100346.31;;;18.08;58.99
58471;BME280;44258;51.288;12.068;2023-07-22T06:10:50;100354.34;;;18.10;57.98
58471;BME280;44258;51.288;12.068;2023-07-22T06:13:40;100346.91;;;18.43;57.68
58471;BME280;44258;51.288;12.068;2023-07-22T06:16:30;100343.22;;;18.53;57.31
58471;BME280;44258;51.288;12.068;2023-07-22T06:19:16;100347.38;;;18.58;56.70
58471;BME280;44258;51.288;12.068;2023-07-22T06:22:03;100343.75;;;18.88;56.35
58471;BME280;44258;51.288;12.068;2023-07-22T06:24:53;100352.28;;;19.04;57.39
58471;BME280;44258;51.288;12.068;2023-07-22T06:27:40;100343.56;;;19.30;54.47
58471;BME280;44258;51.288;12.068;2023-07-22T06:30:27;100354.63;;;19.38;55.34
58471;BME280;44258;51.288;12.068;2023-07-22T06:33:13;100357.78;;;19.43;54.13
58471;BME280;44258;51.288;12.068;2023-07-22T06:36:01;100365.38;;;19.69;53.13
58471;BME280;44258;51.288;12.068;2023-07-22T06:38:48;100365.84;;;19.84;52.52
58471;BME280;44258;51.288;12.068;2023-07-22T06:41:37;100360.50;;;19.82;49.92
58471;BME280;44258;51.288;12.068;2023-07-22T06:44:24;100355.34;;;19.79;50.35
58471;BME280;44258;51.288;12.068;2023-07-22T06:47:21;100362.50;;;20.00;50.09
58471;BME280;44258;51.288;12.068;2023-07-22T06:50:14;100365.72;;;20.32;50.29
58471;BME280;44258;51.288;12.068;2023-07-22T06:53:00;100363.06;;;20.50;48.93
58471;BME280;44258;51.288;12.068;2023-07-22T06:55:48;100358.03;;;20.56;48.64
58471;BME280;44258;51.288;12.068;2023-07-22T06:58:36;100357.22;;;20.36;47.25
58471;BME280;44258;51.288;12.068;2023-07-22T07:01:24;100358.09;;;19.89;47.04
58471;BME280;44258;51.288;12.068;2023-07-22T07:04:11;100361.34;;;20.49;46.91
58471;BME280;44258;51.288;12.068;2023-07-22T07:06:58;100358.84;;;20.93;47.33
58471;BME280;44258;51.288;12.068;2023-07-22T07:09:44;100371.25;;;21.16;46.00
58471;BME280;44258;51.288;12.068;2023-07-22T07:12:31;100372.16;;;21.06;45.86
58471;BME280;44258;51.288;12.068;2023-07-22T07:15:23;100368.84;;;20.85;46.22
58471;BME280;44258;51.288;12.068;2023-07-22T07:18:09;100366.44;;;21.00;46.55
58471;BME280;44258;51.288;12.068;2023-07-22T07:20:56;100375.16;;;20.85;44.81
58471;BME280;44258;51.288;12.068;2023-07-22T07:23:43;100373.09;;;20.97;46.57
58471;BME280;44258;51.288;12.068;2023-07-22T07:26:30;100378.03;;;20.84;46.86
58471;BME280;44258;51.288;12.068;2023-07-22T07:29:17;100379.66;;;21.04;46.22
58471;BME280;44258;51.288;12.068;2023-07-22T07:32:09;100384.66;;;21.37;46.12
58471;BME280;44258;51.288;12.068;2023-07-22T07:34:56;100385.91;;;21.42;46.69
58471;BME280;44258;51.288;12.068;2023-07-22T07:37:43;100389.88;;;21.66;45.83
58471;BME280;44258;51.288;12.068;2023-07-22T07:40:29;100391.53;;;21.77;45.37
58471;BME280;44258;51.288;12.068;2023-07-22T07:43:17;100397.31;;;22.09;44.82
58471;BME280;44258;51.288;12.068;2023-07-22T07:46:17;100392.50;;;22.29;45.26
58471;BME280;44258;51.288;12.068;2023-07-22T07:49:07;100397.63;;;22.32;42.62
58471;BME280;44258;51.288;12.068;2023-07-22T07:51:53;100386.84;;;22.65;43.57
58471;BME280;44258;51.288;12.068;2023-07-22T07:54:40;100405.81;;;22.50;41.79
58471;BME280;44258;51.288;12.068;2023-07-22T07:57:27;100402.25;;;22.58;42.43
58471;BME280;44258;51.288;12.068;2023-07-22T08:00:15;100407.69;;;22.76;42.52
58471;BME280;44258;51.288;12.068;2023-07-22T08:03:05;100406.91;;;23.00;42.11
58471;BME280;44258;51.288;12.068;2023-07-22T08:05:57;100411.75;;;23.06;41.63
58471;BME280;44258;51.288;12.068;2023-07-22T08:08:44;100405.81;;;23.19;41.61
58471;BME280;44258;51.288;12.068;2023-07-22T08:11:31;100407.91;;;23.33;41.20
58471;BME280;44258;51.288;12.068;2023-07-22T08:14:19;100411.56;;;23.59;41.35
58471;BME280;44258;51.288;12.068;2023-07-22T08:17:06;100411.94;;;23.72;40.81
58471;BME280;44258;51.288;12.068;2023-07-22T08:19:52;100407.31;;;23.72;39.47
58471;BME280;44258;51.288;12.068;2023-07-22T08:22:41;100406.34;;;23.31;40.47
58471;BME280;44258;51.288;12.068;2023-07-22T08:25:27;100407.66;;;23.10;40.03
58471;BME280;44258;51.288;12.068;2023-07-22T08:28:14;100405.16;;;22.83;41.01
58471;BME280;44258;51.288;12.068;2023-07-22T08:31:01;100413.84;;;23.12;41.30
58471;BME280;44258;51.288;12.068;2023-07-22T08:33:48;100409.88;;;23.58;40.75
58471;BME280;44258;51.288;12.068;2023-07-22T08:36:35;100404.19;;;23.67;39.39
58471;BME280;44258;51.288;12.068;2023-07-22T08:39:25;100405.09;;;23.68;39.21
58471;BME280;44258;51.288;12.068;2023-07-22T08:42:12;100400.59;;;23.67;39.12
58471;BME280;44258;51.288;12.068;2023-07-22T08:45:01;100400.44;;;23.77;39.15
58471;BME280;44258;51.288;12.068;2023-07-22T08:47:49;100402.88;;;23.96;38.37
58471;BME280;44258;51.288;12.068;2023-07-22T08:50:40;100404.03;;;24.02;37.45
58471;BME280;44258;51.288;12.068;2023-07-22T08:53:28;100403.53;;;24.06;37.28
58471;BME280;44258;51.288;12.068;2023-07-22T08:56:17;100413.28;;;24.50;37.97
58471;BME280;44258;51.288;12.068;2023-07-22T08:59:04;100404.03;;;24.35;37.65
58471;BME280;44258;51.288;12.068;2023-07-22T09:01:51;100412.31;;;24.18;37.44
58471;BME280;44258;51.288;12.068;2023-07-22T09:04:39;100416.63;;;24.21;37.45
58471;BME280;44258;51.288;12.068;2023-07-22T09:07:26;100408.34;;;24.37;36.85
58471;BME280;44258;51.288;12.068;2023-07-22T09:10:13;100403.97;;;24.67;36.29
58471;BME280;44258;51.288;12.068;2023-07-22T09:13:05;100408.09;;;24.80;35.92
58471;BME280;44258;51.288;12.068;2023-07-22T09:15:52;100404.72;;;24.37;36.19
58471;BME280;44258;51.288;12.068;2023-07-22T09:18:40;100394.63;;;24.29;36.35
58471;BME280;44258;51.288;12.068;2023-07-22T09:21:27;100401.66;;;23.82;37.85
58471;BME280;44258;51.288;12.068;2023-07-22T09:24:19;100395.63;;;23.95;38.10
58471;BME280;44258;51.288;12.068;2023-07-22T09:27:07;100392.06;;;24.11;36.14
58471;BME280;44258;51.288;12.068;2023-07-22T09:29:55;100390.81;;;24.30;36.07
58471;BME280;44258;51.288;12.068;2023-07-22T09:32:42;100394.00;;;24.66;36.40
58471;BME280;44258;51.288;12.068;2023-07-22T09:35:42;100394.69;;;24.68;35.07
58471;BME280;44258;51.288;12.068;2023-07-22T09:38:30;100397.19;;;24.14;36.44
58471;BME280;44258;51.288;12.068;2023-07-22T09:41:18;100396.66;;;24.43;36.71
58471;BME280;44258;51.288;12.068;2023-07-22T09:44:06;100392.34;;;24.49;35.91
58471;BME280;44258;51.288;12.068;2023-07-22T09:46:59;100388.63;;;24.17;35.98
58471;BME280;44258;51.288;12.068;2023-07-22T09:49:52;100390.13;;;23.62;37.31
58471;BME280;44258;51.288;12.068;2023-07-22T09:52:44;100389.63;;;23.83;37.38
58471;BME280;44258;51.288;12.068;2023-07-22T09:55:31;100383.97;;;23.93;37.28
58471;BME280;44258;51.288;12.068;2023-07-22T09:58:18;100373.84;;;23.85;37.14
58471;BME280;44258;51.288;12.068;2023-07-22T10:01:05;100377.41;;;23.45;37.31
58471;BME280;44258;51.288;12.068;2023-07-22T10:03:54;100374.88;;;23.60;37.50
58471;BME280;44258;51.288;12.068;2023-07-22T10:06:41;100381.69;;;23.39;37.67
58471;BME280;44258;51.288;12.068;2023-07-22T10:09:29;100380.38;;;23.60;37.87
58471;BME280;44258;51.288;12.068;2023-07-22T10:12:16;100384.66;;;23.79;37.33
58471;BME280;44258;51.288;12.068;2023-07-22T10:15:03;100380.72;;;24.14;36.70
58471;BME280;44258;51.288;12.068;2023-07-22T10:17:50;100373.47;;;24.29;36.68
58471;BME280;44258;51.288;12.068;2023-07-22T10:20:39;100371.97;;;23.94;35.36
58471;BME280;44258;51.288;12.068;2023-07-22T10:23:27;100381.38;;;23.59;35.86
58471;BME280;44258;51.288;12.068;2023-07-22T10:26:14;100376.56;;;23.69;36.68
58471;BME280;44258;51.288;12.068;2023-07-22T10:29:05;100376.06;;;24.06;36.72
58471;BME280;44258;51.288;12.068;2023-07-22T10:31:53;100369.69;;;24.06;36.45
58471;BME280;44258;51.288;12.068;2023-07-22T10:34:40;100374.53;;;24.12;36.02
58471;BME280;44258;51.288;12.068;2023-07-22T10:37:31;100370.59;;;23.82;36.84
58471;BME280;44258;51.288;12.068;2023-07-22T10:40:19;100377.94;;;23.81;37.02
58471;BME280;44258;51.288;12.068;2023-07-22T10:43:06;100366.63;;;24.01;36.95
58471;BME280;44258;51.288;12.068;2023-07-22T10:45:54;100356.66;;;23.83;36.13
58471;BME280;44258;51.288;12.068;2023-07-22T10:48:41;100356.75;;;23.16;37.09
58471;BME280;44258;51.288;12.068;2023-07-22T10:51:33;100359.56;;;23.41;36.60
58471;BME280;44258;51.288;12.068;2023-07-22T10:54:32;100361.16;;;23.68;37.22
58471;BME280;44258;51.288;12.068;2023-07-22T10:57:24;100350.00;;;23.78;35.70
58471;BME280;44258;51.288;12.068;2023-07-22T11:00:17;100351.00;;;23.52;36.27
58471;BME280;44258;51.288;12.068;2023-07-22T11:03:10;100355.97;;;24.06;37.12
58471;BME280;44258;51.288;12.068;2023-07-22T11:05:58;100347.91;;;24.29;36.24
58471;BME280;44258;51.288;12.068;2023-07-22T11:08:45;100349.53;;;24.55;35.56
58471;BME280;44258;51.288;12.068;2023-07-22T11:11:36;100356.81;;;24.31;36.31
58471;BME280;44258;51.288;12.068;2023-07-22T11:14:24;100345.31;;;24.27;35.59
58471;BME280;44258;51.288;12.068;2023-07-22T11:17:11;100348.09;;;24.19;36.04
58471;BME280;44258;51.288;12.068;2023-07-22T11:20:00;100346.72;;;23.99;35.61
58471;BME280;44258;51.288;12.068;2023-07-22T11:22:48;100344.69;;;24.09;35.79
58471;BME280;44258;51.288;12.068;2023-07-22T11:25:36;100347.41;;;23.84;37.20
58471;BME280;44258;51.288;12.068;2023-07-22T11:28:24;100338.78;;;24.04;36.32
58471;BME280;44258;51.288;12.068;2023-07-22T11:31:12;100343.63;;;23.93;35.86
58471;BME280;44258;51.288;12.068;2023-07-22T11:33:59;100335.41;;;23.77;35.72
58471;BME280;44258;51.288;12.068;2023-07-22T11:36:46;100330.75;;;23.69;34.89
58471;BME280;44258;51.288;12.068;2023-07-22T11:39:33;100334.38;;;23.62;35.79
58471;BME280;44258;51.288;12.068;2023-07-22T11:42:21;100336.78;;;23.73;35.89
58471;BME280;44258;51.288;12.068;2023-07-22T11:45:11;100328.03;;;23.78;35.01
58471;BME280;44258;51.288;12.068;2023-07-22T11:47:57;100324.41;;;23.93;35.35
58471;BME280;44258;51.288;12.068;2023-07-22T11:50:44;100339.88;;;23.78;35.89
58471;BME280;44258;51.288;12.068;2023-07-22T11:53:31;100335.03;;;23.97;35.03
58471;BME280;44258;51.288;12.068;2023-07-22T11:56:19;100328.03;;;24.10;35.89
58471;BME280;44258;51.288;12.068;2023-07-22T11:59:06;100330.25;;;24.15;34.91
58471;BME280;44258;51.288;12.068;2023-07-22T12:01:55;100331.59;;;24.27;34.84
58471;BME280;44258;51.288;12.068;2023-07-22T12:04:42;100330.38;;;24.30;35.63
58471;BME280;44258;51.288;12.068;2023-07-22T12:07:29;100326.03;;;24.44;35.03
58471;BME280;44258;51.288;12.068;2023-07-22T12:10:16;100328.16;;;24.17;34.75
58471;BME280;44258;51.288;12.068;2023-07-22T12:13:04;100332.94;;;24.31;34.67
58471;BME280;44258;51.288;12.068;2023-07-22T12:15:59;100327.59;;;24.38;35.02
58471;BME280;44258;51.288;12.068;2023-07-22T12:18:47;100330.25;;;24.15;34.98
58471;BME280;44258;51.288;12.068;2023-07-22T12:21:34;100322.84;;;23.91;35.04
58471;BME280;44258;51.288;12.068;2023-07-22T12:24:21;100330.44;;;23.64;34.23
58471;BME280;44258;51.288;12.068;2023-07-22T12:27:09;100323.72;;;23.83;34.34
58471;BME280;44258;51.288;12.068;2023-07-22T12:29:56;100321.66;;;24.10;34.88
58471;BME280;44258;51.288;12.068;2023-07-22T12:32:43;100318.53;;;24.21;34.18
58471;BME280;44258;51.288;12.068;2023-07-22T12:35:31;100311.84;;;24.80;34.14
58471;BME280;44258;51.288;12.068;2023-07-22T12:38:18;100321.78;;;25.12;33.20
58471;BME280;44258;51.288;12.068;2023-07-22T12:41:05;100309.69;;;25.21;33.24
58471;BME280;44258;51.288;12.068;2023-07-22T12:43:52;100306.19;;;25.04;33.23
58471;BME280;44258;51.288;12.068;2023-07-22T12:46:39;100307.09;;;24.97;33.49
58471;BME280;44258;51.288;12.068;2023-07-22T12:49:25;100305.06;;;25.14;33.15
58471;BME280;44258;51.288;12.068;2023-07-22T12:52:14;100310.66;;;25.37;33.23
58471;BME280;44258;51.288;12.068;2023-07-22T12:55:01;100292.91;;;25.39;32.66
58471;BME280;44258;51.288;12.068;2023-07-22T12:57:48;100301.44;;;25.44;32.79
58471;BME280;44258;51.288;12.068;2023-07-22T13:00:35;100297.03;;;25.35;32.57
58471;BME280;44258;51.288;12.068;2023-07-22T13:03:22;100288.63;;;25.75;33.19
58471;BME280;44258;51.288;12.068;2023-07-22T13:06:08;100285.69;;;25.76;32.56
58471;BME280;44258;51.288;12.068;2023-07-22T13:08:57;100290.44;;;25.82;32.37
58471;BME280;44258;51.288;12.068;2023-07-22T13:11:45;100289.38;;;25.68;32.61
58471;BME280;44258;51.288;12.068;2023-07-22T13:14:32;100288.06;;;25.41;32.54
58471;BME280;44258;51.288;12.068;2023-07-22T13:17:19;100274.91;;;25.51;32.79
58471;BME280;44258;51.288;12.068;2023-07-22T13:20:06;100281.41;;;24.73;33.09
58471;BME280;44258;51.288;12.068;2023-07-22T13:22:57;100280.88;;;25.09;32.27
58471;BME280;44258;51.288;12.068;2023-07-22T13:25:45;100270.97;;;25.23;32.24
58471;BME280;44258;51.288;12.068;2023-07-22T13:28:32;100268.72;;;25.49;32.63
58471;BME280;44258;51.288;12.068;2023-07-22T13:31:19;100257.59;;;25.43;32.80
58471;BME280;44258;51.288;12.068;2023-07-22T13:34:05;100261.66;;;25.24;32.46
58471;BME280;44258;51.288;12.068;2023-07-22T13:36:52;100264.31;;;25.40;31.67
58471;BME280;44258;51.288;12.068;2023-07-22T13:39:39;100266.50;;;25.22;31.48
58471;BME280;44258;51.288;12.068;2023-07-22T13:42:27;100258.66;;;25.34;32.05
58471;BME280;44258;51.288;12.068;2023-07-22T13:45:14;100258.66;;;25.34;31.87
58471;BME280;44258;51.288;12.068;2023-07-22T14:27:49;100220.34;;;21.82;37.61
58471;BME280;44258;51.288;12.068;2023-07-22T14:30:36;100221.28;;;22.84;36.05
58471;BME280;44258;51.288;12.068;2023-07-22T14:33:23;100229.81;;;23.96;34.63
58471;BME280;44258;51.288;12.068;2023-07-22T14:36:10;100227.03;;;24.52;33.56
58471;BME280;44258;51.288;12.068;2023-07-22T14:38:57;100222.03;;;24.87;32.67
58471;BME280;44258;51.288;12.068;2023-07-22T14:41:46;100213.56;;;24.74;32.00
58471;BME280;44258;51.288;12.068;2023-07-22T14:44:34;100207.34;;;24.71;31.72
58471;BME280;44258;51.288;12.068;2023-07-22T14:47:21;100211.09;;;25.25;32.28
58471;BME280;44258;51.288;12.068;2023-07-22T14:50:09;100203.03;;;25.61;31.03
58471;BME280;44258;51.288;12.068;2023-07-22T14:52:56;100204.34;;;25.50;31.03
58471;BME280;44258;51.288;12.068;2023-07-22T14:55:44;100204.06;;;25.45;31.76
58471;BME280;44258;51.288;12.068;2023-07-22T14:58:31;100203.88;;;25.47;30.58
58471;BME280;44258;51.288;12.068;2023-07-22T15:01:20;100208.06;;;25.43;31.23
58471;BME280;44258;51.288;12.068;2023-07-22T15:04:08;100209.09;;;25.57;30.83
58471;BME280;44258;51.288;12.068;2023-07-22T15:06:55;100203.50;;;25.50;30.44